Архив погоды в Красных Баках

Метеограмма Красные Баки
Понедельник, 22 Октября
Время местн. Темп Ветер Видим Явления Облачность нижн/средн/верх Атм. давл. Влжн Точка росы ВНГО R Сост. почвы Tg s
Напр Скр Прв ур.ст ур.м изм
09:00 +3.6° З,Ю-З 4 6 20 км - облачно с прояснениями 759 769 -0.5 76% -0.2° - - - - -
06:00 -0.3° Ю,Ю-З 1 2 10 км - переменная облачность 759 770 -0.8 94% -1.2° - - Замерзшая - -
03:00 +2° З 1 1 10 км - облачно с прояснениями 760 770 -0.6 91% +0.7° - - - - -
00:00 +3.3° штиль 0 0 10 км - облачно 760 771 +0.5 86% +1.2° - - - - -
Воскресенье, 21 Октября
Время местн. Темп Ветер Видим Явления Облачность нижн/средн/верх Атм. давл. Влжн Точка росы ВНГО R Сост. почвы Tg s
Напр Скр Прв ур.ст ур.м изм
18:00 +4.1° штиль 0 0 10 км - облачно 760 770 +0.2 82% +1.3° 1.5 км - - - -
15:00 +5.3° С-З 2 3 20 км небо без изменений {дождь} облачно 759 770 +0.2 71% +0.5° 1 км - - - -
12:00 +5.3° З,С-З 2 4 20 км - облачно 759 770 +0.8 73% +0.8° 1.5 км - - - -
09:00 +4.4° С 1 2 20 км - преимущественно облачно 759 769 +1.3 89% +2.7° - - - - -
06:00 +3.6° З 1 2 10 км - облачно 757 768 +0.9 91% +2.3° - - Влажная (без луж) - -
03:00 +4.3° З,С-З 3 3 10 км - облачно с прояснениями 756 767 +0.8 90% +2.8° 1.5 км - - - -
00:00 +5.3° З,С-З 1 3 10 км - облачно 756 766 +1 88% +3.4° 1.5 км - - - -
Суббота, 20 Октября
Время местн. Темп Ветер Видим Явления Облачность нижн/средн/верх Атм. давл. Влжн Точка росы ВНГО R Сост. почвы Tg s
Напр Скр Прв ур.ст ур.м изм
21:00 +5.1° З 3 4 10 км - облачно с прояснениями 755 765 +0.9 83% +2.4° - - - - -
18:00 +5.3° З 2 3 10 км - облачно с прояснениями 754 764 +1.1 78% +1.8° - - - - -
15:00 +7.5° З,С-З 3 4 20 км - переменная облачность 753 763 +0.7 68% +1.9° 1.5 км - - - -
12:00 +7.3° З,С-З 3 5 20 км - облачно с прояснениями 752 762 +1 75% +3.2° 1.5 км - - - -
09:00 +4.5° З 3 5 20 км - облачно 751 761 +0.8 87% +2.5° - - - - -
06:00 +3.7° З 3 5 10 км - переменная облачность 750 761 +0.4 90% +2.2° - - Влажная (без луж) - -
03:00 +5.4° З 3 5 10 км - переменная облачность 750 760 -0.1 91% +4° - - - - -
00:00 +7.3° З 3 5 10 км - облачно с прояснениями 750 760 +0.2 88% +5.5° - - - - -
Пятница, 19 Октября
Время местн. Темп Ветер Видим Явления Облачность нижн/средн/верх Атм. давл. Влжн Точка росы ВНГО R Сост. почвы Tg s
Напр Скр Прв ур.ст ур.м изм
21:00 +10.1° З,С-З 3 5 10 км небо без изменений {дождь} облачно с прояснениями 750 760 +0.5 78% +6.5° - - - - -
18:00 +12.8° З 2 3 10 км слабый дождь с перерывами облачно 749 759 +0.5 71% +7.7° 1.5 км - - - -
15:00 +15.5° З 3 6 20 км - переменная облачность 749 759 -0.5 62% +8.2° - - - - -
12:00 +14.2° З,Ю-З 3 7 20 км - переменная облачность 749 759 -0.7 66% +8° - - - - -
09:00 +8.3° З 2 4 20 км - переменная облачность 750 760 -0.7 82% +5.5° - - - - -
06:00 +6° З 2 7 10 км - ясно 751 761 -0.9 95% +5.3° более 2.5 км 0 Влажная (без луж) +4° -
03:00 +7.5° З 2 4 10 км - ясно 752 762 -0.7 93% +6.4° более 2.5 км - - - -